PWSweather.com
Personal Weather Stations
Station Observations
KGRPEEBLES
PeeblesGB EH45 9LX

PeeblesGB EH45 9LX

Lat: 55.64096, Lon: -3.170893

Elevation: 517

Station Type: Watson W-8681

Latest ConditionsUpdated 3:00:02 PM GMT Friday, Feb 24, 2017
Currently Today's Max Today's Min Today's Average
Temperature 45.3°F7.4°C 47.8°F8.8°C 31.1°F-0.5°C 36.7°F2.6°C
Dew Point 21.8°F-5.7°C 80.4°F26.9°C -19.3°F-28.5°C -11.4°F-24.1°C
Winds 4.2 mph WSW6.8 kmh WSW 38.8 mph N62.4 kmh N - 3.6 mph 5.8 kmh
Wind Gusts 8.3 mph13.4 kmh 117.0 mph188.3 kmh - -
Humidity 39% 39% 5% 12%
Pressure 29.84 in1010.5 mb 29.86 in1011.2 mb 29.51 in999.3 mb -
Precipitation - 57.81 in1468.4 mm - -
Hour Temp Dew Point Humidity Winds Wind Gusts Pressure Precip Precip Rate Daily Precip Total
03:00 PM 45.3°F7.4°C 21.8°F-5.7°C 39% 4.2 mph WSW6.8 kmh WSW 8.3 mph13.4 kmh 29.84 in1010.5 mb 0.00 in0.0 mm 0.00 in0.0 mm 57.81 in1468.4 mm
02:45 PM 46.8°F8.2°C 19.9°F-6.7°C 34% 4.1 mph SW6.6 kmh SW 6.0 mph9.7 kmh 29.84 in1010.5 mb 0.00 in0.0 mm 0.00 in0.0 mm 57.81 in1468.4 mm
02:30 PM 47.8°F8.8°C 18.7°F-7.4°C 31% 4.2 mph SSW6.8 kmh SSW 8.3 mph13.4 kmh 29.84 in1010.5 mb 0.00 in0.0 mm 0.00 in0.0 mm 57.81 in1468.4 mm
02:15 PM 46.8°F8.2°C 19.9°F-6.7°C 34% 3.4 mph WNW5.5 kmh WNW 5.4 mph8.7 kmh 29.84 in1010.5 mb 0.00 in0.0 mm 0.00 in0.0 mm 57.81 in1468.4 mm
02:00 PM 45.7°F7.6°C 18.2°F-7.7°C 33% 3.9 mph W6.3 kmh W 6.9 mph11.1 kmh 29.84 in1010.5 mb 0.00 in0.0 mm 0.00 in0.0 mm 57.81 in1468.4 mm
01:45 PM 45.3°F7.4°C 18.6°F-7.4°C 34% 4.7 mph SW7.6 kmh SW 6.9 mph11.1 kmh 29.84 in1010.5 mb 0.00 in0.0 mm 0.00 in0.0 mm 57.81 in1468.4 mm
01:30 PM 44.6°F7.0°C 20.6°F-6.3°C 38% 3.3 mph WNW5.3 kmh WNW 4.5 mph7.2 kmh 29.84 in1010.5 mb 0.00 in0.0 mm 0.00 in0.0 mm 57.81 in1468.4 mm
01:15 PM 44.8°F7.1°C 20.7°F-6.3°C 38% 3.2 mph NW5.1 kmh NW 7.6 mph12.2 kmh 29.84 in1010.5 mb 0.00 in0.0 mm 0.00 in0.0 mm 57.81 in1468.4 mm
01:00 PM 45.0°F7.2°C 17.6°F-8.0°C 33% 4.8 mph W7.7 kmh W 7.6 mph12.2 kmh 29.84 in1010.5 mb 0.00 in0.0 mm 0.00 in0.0 mm 57.81 in1468.4 mm
12:45 PM 45.7°F7.6°C 16.8°F-8.4°C 31% 4.6 mph WNW7.4 kmh WNW 7.6 mph12.2 kmh 29.84 in1010.5 mb 0.00 in0.0 mm 0.00 in0.0 mm 57.81 in1468.4 mm
12:30 PM 45.7°F7.6°C 14.5°F-9.7°C 28% 4.6 mph NW7.4 kmh NW 8.3 mph13.4 kmh 29.84 in1010.5 mb 0.00 in0.0 mm 0.00 in0.0 mm 57.81 in1468.4 mm
12:15 PM 45.1°F7.3°C 14.8°F-9.6°C 29% 5.6 mph WNW9.0 kmh WNW 9.8 mph15.8 kmh 29.84 in1010.5 mb 0.00 in0.0 mm 0.00 in0.0 mm 57.81 in1468.4 mm
12:00 PM 46.2°F7.9°C 12.4°F-10.9°C 25% 5.4 mph WNW8.7 kmh WNW 8.3 mph13.4 kmh 29.86 in1011.2 mb 0.00 in0.0 mm 0.00 in0.0 mm 57.81 in1468.4 mm
11:45 AM 46.4°F8.0°C 10.6°F-11.9°C 23% 4.4 mph NW7.1 kmh NW 6.0 mph9.7 kmh 29.85 in1010.8 mb 0.00 in0.0 mm 0.00 in0.0 mm 57.81 in1468.4 mm
11:30 AM 46.2°F7.9°C -3.5°F-19.7°C 12% 5.5 mph W8.9 kmh W 11.4 mph18.3 kmh 29.85 in1010.8 mb 0.00 in0.0 mm 0.00 in0.0 mm 57.81 in1468.4 mm
11:15 AM 45.5°F7.5°C -7.9°F-22.2°C 10% 4.5 mph WSW7.2 kmh WSW 6.9 mph11.1 kmh 29.85 in1010.8 mb 0.00 in0.0 mm 0.00 in0.0 mm 57.81 in1468.4 mm
11:00 AM 45.5°F7.5°C -7.9°F-22.2°C 10% 3.8 mph SW6.1 kmh SW 6.9 mph11.1 kmh 29.85 in1010.8 mb 0.00 in0.0 mm 0.00 in0.0 mm 57.81 in1468.4 mm
10:45 AM 45.7°F7.6°C -7.7°F-22.1°C 10% 4.1 mph NW6.6 kmh NW 6.0 mph9.7 kmh 29.84 in1010.5 mb 0.00 in0.0 mm 0.00 in0.0 mm 57.81 in1468.4 mm
10:30 AM 45.1°F7.3°C -8.1°F-22.3°C 10% 3.2 mph SW5.1 kmh SW 6.9 mph11.1 kmh 29.85 in1010.8 mb 0.00 in0.0 mm 0.00 in0.0 mm 57.81 in1468.4 mm
10:15 AM 42.6°F5.9°C -10.1°F-23.4°C 10% 5.0 mph SW8.0 kmh SW 6.9 mph11.1 kmh 29.84 in1010.5 mb 0.00 in0.0 mm 0.00 in0.0 mm 57.81 in1468.4 mm
10:00 AM 41.4°F5.2°C -11.1°F-23.9°C 10% 4.9 mph SW7.9 kmh SW 7.6 mph12.2 kmh 29.84 in1010.5 mb 0.00 in0.0 mm 0.00 in0.0 mm 57.81 in1468.4 mm
09:54 AM 33.3°F0.7°C -17.6°F-27.6°C 10% 38.8 mph N62.4 kmh N 117.0 mph188.3 kmh 29.77 in1008.1 mb 0.00 in0.0 mm 0.00 in0.0 mm 57.81 in1468.4 mm
09:53 AM 36.9°F2.7°C -14.8°F-26.0°C 10% 5.4 mph NW8.7 kmh NW 5.4 mph8.7 kmh 29.61 in1002.7 mb 0.00 in0.0 mm 0.00 in0.0 mm 0.01 in0.3 mm
09:52 AM 36.9°F2.7°C -14.8°F-26.0°C 10% 5.1 mph WSW8.2 kmh WSW 6.0 mph9.7 kmh 29.59 in1002.0 mb 0.00 in0.0 mm 0.00 in0.0 mm 0.01 in0.3 mm
09:47 AM 39.0°F3.9°C -13.1°F-25.1°C 10% 4.3 mph SSW6.9 kmh SSW 4.5 mph7.2 kmh 29.84 in1010.5 mb 0.00 in0.0 mm 0.00 in0.0 mm 57.81 in1468.4 mm
09:42 AM 38.1°F3.4°C -13.8°F-25.4°C 10% 3.5 mph SSW5.6 kmh SSW 4.5 mph7.2 kmh 29.84 in1010.5 mb 0.00 in0.0 mm 0.00 in0.0 mm 57.81 in1468.4 mm
01:00 AM 36.9°F2.7°C -14.6°F-25.9°C 10% 5.4 mph WSW8.7 kmh WSW 9.8 mph15.8 kmh 29.59 in1002.0 mb 0.00 in0.0 mm 0.00 in0.0 mm 0.01 in0.3 mm
12:45 AM 36.9°F2.7°C -14.6°F-25.9°C 10% 4.8 mph WSW7.7 kmh WSW 9.2 mph14.8 kmh 29.59 in1002.0 mb 0.00 in0.0 mm 0.00 in0.0 mm 0.01 in0.3 mm
12:30 AM 36.9°F2.7°C -14.6°F-25.9°C 10% 3.1 mph W5.0 kmh W 5.4 mph8.7 kmh 29.58 in1001.7 mb 0.00 in0.0 mm 0.00 in0.0 mm 0.01 in0.3 mm
12:15 AM 36.7°F2.6°C -14.7°F-25.9°C 10% 2.1 mph WNW3.4 kmh WNW 3.1 mph5.0 kmh 29.58 in1001.7 mb 0.00 in0.0 mm 0.00 in0.0 mm 0.01 in0.3 mm
12:00 AM 36.9°F2.7°C -14.6°F-25.9°C 10% 2.5 mph W4.0 kmh W 5.4 mph8.7 kmh 29.57 in1001.4 mb 0.01 in0.3 mm 0.00 in0.0 mm 0.01 in0.3 mm